createdAt,value
2019-02-21T00:00:01.813Z,30.33
2019-02-21T00:02:34.520Z,28.23
2019-02-21T00:05:05.875Z,27.47
2019-02-21T00:07:37.150Z,29.67
2019-02-21T00:10:08.690Z,25.93
2019-02-21T00:12:40.031Z,30.20
2019-02-21T00:15:11.425Z,30.67
2019-02-21T00:17:42.537Z,29.83
2019-02-21T00:20:13.644Z,32.60
2019-02-21T00:22:44.741Z,28.43
2019-02-21T00:25:15.849Z,27.23
2019-02-21T00:27:46.943Z,24.37
2019-02-21T00:30:18.088Z,32.93
2019-02-21T00:32:49.178Z,31.67
2019-02-21T00:35:21.340Z,30.03
2019-02-21T00:37:52.527Z,26.97
2019-02-21T00:40:23.667Z,24.80
2019-02-21T00:42:54.791Z,26.53
2019-02-21T00:45:25.954Z,24.00
2019-02-21T00:47:57.143Z,26.00
2019-02-21T00:50:28.309Z,27.00
2019-02-21T00:52:59.488Z,27.33
2019-02-21T00:55:30.628Z,24.73
2019-02-21T00:58:01.771Z,24.97
2019-02-21T01:00:32.942Z,23.90
2019-02-21T01:03:04.437Z,23.30
2019-02-21T01:05:35.627Z,20.90
2019-02-21T01:08:06.928Z,29.27
2019-02-21T01:10:38.126Z,24.47
2019-02-21T01:13:09.290Z,25.53
2019-02-21T01:15:40.504Z,21.70
2019-02-21T01:18:11.654Z,25.37
2019-02-21T01:20:43.873Z,26.30
2019-02-21T01:23:14.948Z,22.70
2019-02-21T01:25:46.028Z,21.87
2019-02-21T01:28:17.315Z,28.10
2019-02-21T01:30:56.639Z,21.13
2019-02-21T01:33:21.147Z,26.97
2019-02-21T01:35:52.225Z,22.33
2019-02-21T01:38:23.355Z,21.03
2019-02-21T01:40:54.416Z,22.00
2019-02-21T01:43:25.632Z,25.87
2019-02-21T01:45:56.772Z,22.93
2019-02-21T01:48:29.660Z,20.73
2019-02-21T01:51:00.735Z,22.03
2019-02-21T01:53:31.834Z,22.03
2019-02-21T01:56:03.069Z,26.70
2019-02-21T01:58:37.185Z,22.40
2019-02-21T02:01:09.066Z,16.23
2019-02-21T02:03:40.381Z,18.00
2019-02-21T02:06:11.510Z,19.27
2019-02-21T02:08:42.671Z,26.67
2019-02-21T02:11:13.840Z,25.57
2019-02-21T02:13:46.162Z,21.33
2019-02-21T02:16:17.497Z,17.77
2019-02-21T02:18:48.537Z,20.97
2019-02-21T02:21:19.705Z,24.93
2019-02-21T02:23:50.853Z,20.73
2019-02-21T02:26:22.025Z,23.10
2019-02-21T02:28:53.095Z,19.00
2019-02-21T02:31:24.181Z,20.60
2019-02-21T02:33:55.399Z,25.50
2019-02-21T02:36:26.458Z,17.80
2019-02-21T02:38:57.639Z,23.63
2019-02-21T02:41:28.710Z,19.07
2019-02-21T02:43:59.857Z,24.03
2019-02-21T02:46:31.048Z,23.80
2019-02-21T02:49:02.113Z,22.93
2019-02-21T02:51:33.282Z,27.10
2019-02-21T02:54:04.454Z,23.63
2019-02-21T02:56:35.675Z,23.40
2019-02-21T02:59:06.736Z,24.33
2019-02-21T03:01:37.787Z,21.20
2019-02-21T03:04:09.015Z,21.77
2019-02-21T03:06:40.252Z,21.83
2019-02-21T03:09:14.436Z,26.87
2019-02-21T03:11:45.590Z,24.33
2019-02-21T03:14:16.746Z,19.27
2019-02-21T03:16:47.902Z,23.57
2019-02-21T03:19:19.139Z,20.63
2019-02-21T03:21:50.244Z,26.03
2019-02-21T03:24:21.364Z,25.43
2019-02-21T03:26:52.495Z,19.20
2019-02-21T03:29:23.597Z,20.53
2019-02-21T03:31:56.084Z,18.00
2019-02-21T03:34:27.525Z,21.17
2019-02-21T03:36:58.641Z,19.90
2019-02-21T03:39:29.724Z,20.60
2019-02-21T03:42:01.040Z,21.97
2019-02-21T03:44:32.079Z,20.70
2019-02-21T03:47:03.167Z,20.57
2019-02-21T03:49:34.244Z,22.57
2019-02-21T03:52:05.442Z,23.80
2019-02-21T03:54:36.988Z,22.30
2019-02-21T03:57:08.047Z,17.30
2019-02-21T03:59:39.152Z,23.37
2019-02-21T04:02:10.264Z,27.20
2019-02-21T04:04:42.440Z,19.77
2019-02-21T04:07:14.715Z,21.20
2019-02-21T04:09:45.871Z,20.17
2019-02-21T04:12:17.025Z,20.87
2019-02-21T04:14:48.135Z,21.73
2019-02-21T04:17:19.170Z,25.97
2019-02-21T04:19:50.315Z,22.60
2019-02-21T04:22:21.494Z,20.87
2019-02-21T04:24:52.650Z,20.23
2019-02-21T04:27:23.761Z,18.40
2019-02-21T04:29:54.945Z,24.50
2019-02-21T04:32:26.026Z,17.17
2019-02-21T04:34:57.199Z,16.27
2019-02-21T04:37:28.455Z,18.27
2019-02-21T04:39:59.572Z,17.20
2019-02-21T04:42:30.706Z,19.70
2019-02-21T04:45:01.768Z,19.20
2019-02-21T04:47:32.924Z,15.83
2019-02-21T04:50:04.038Z,17.07
2019-02-21T04:52:35.150Z,22.07
2019-02-21T04:55:06.256Z,20.10
2019-02-21T04:57:37.496Z,18.87
2019-02-21T05:00:10.956Z,17.73
2019-02-21T05:02:42.061Z,23.40
2019-02-21T05:05:13.220Z,23.23
2019-02-21T05:07:44.381Z,22.10
2019-02-21T05:10:15.549Z,23.30
2019-02-21T05:12:46.732Z,17.70
2019-02-21T05:15:17.832Z,20.23
2019-02-21T05:17:49.001Z,19.90
2019-02-21T05:20:20.148Z,23.40
2019-02-21T05:22:51.322Z,20.30
2019-02-21T05:25:22.467Z,18.30
2019-02-21T05:28:15.599Z,21.77
2019-02-21T05:30:47.769Z,21.80
2019-02-21T05:33:54.201Z,20.80
2019-02-21T05:36:38.269Z,22.80
2019-02-21T05:39:30.731Z,21.57
2019-02-21T05:42:10.901Z,22.07
2019-02-21T05:45:06.760Z,22.93
2019-02-21T05:47:43.282Z,24.03
2019-02-21T05:50:31.913Z,22.27
2019-02-21T05:53:31.138Z,23.10
2019-02-21T05:56:12.974Z,24.97
2019-02-21T05:58:59.604Z,26.97
2019-02-21T06:02:08.606Z,26.90
2019-02-21T06:05:10.942Z,30.80
2019-02-21T06:08:03.706Z,31.00
2019-02-21T06:10:47.782Z,30.57
2019-02-21T06:13:36.816Z,26.73
2019-02-21T06:16:33.107Z,32.50
2019-02-21T06:19:33.749Z,28.70
2019-02-21T06:22:24.417Z,27.60
2019-02-21T06:25:17.520Z,28.00
2019-02-21T06:27:53.832Z,30.93
2019-02-21T06:30:50.250Z,28.40
2019-02-21T06:33:21.384Z,26.47
2019-02-21T06:35:53.597Z,26.97
2019-02-21T06:38:24.776Z,25.43
2019-02-21T06:40:55.993Z,29.03
2019-02-21T06:43:27.124Z,31.73
2019-02-21T06:45:58.324Z,27.57
2019-02-21T06:48:29.427Z,31.80
2019-02-21T06:51:00.637Z,23.40
2019-02-21T06:53:31.717Z,29.00
2019-02-21T06:56:02.823Z,30.00
2019-02-21T06:58:34.019Z,31.50
2019-02-21T07:01:05.199Z,28.83
2019-02-21T07:03:36.580Z,29.60
2019-02-21T07:06:07.781Z,30.27
2019-02-21T07:08:40.130Z,27.40
2019-02-21T07:11:11.504Z,34.37
2019-02-21T07:13:42.697Z,30.10
2019-02-21T07:16:13.961Z,29.20
2019-02-21T07:18:45.153Z,33.37
2019-02-21T07:21:16.334Z,32.33
2019-02-21T07:23:47.536Z,32.80
2019-02-21T07:26:20.266Z,31.37
2019-02-21T07:28:51.523Z,33.73
2019-02-21T07:31:28.922Z,31.23
2019-02-21T07:33:55.552Z,37.80
2019-02-21T07:36:26.975Z,35.90
2019-02-21T07:39:13.753Z,33.03
2019-02-21T07:41:30.885Z,35.03
2019-02-21T07:44:11.730Z,31.80
2019-02-21T07:46:34.696Z,30.87
2019-02-21T07:49:05.819Z,34.53
2019-02-21T07:51:37.074Z,30.97
2019-02-21T07:54:08.228Z,35.30
2019-02-21T07:56:42.325Z,33.40
2019-02-21T07:59:12.398Z,30.63
2019-02-21T08:01:43.483Z,24.37
2019-02-21T08:04:14.771Z,29.10
2019-02-21T08:06:46.091Z,25.70
2019-02-21T08:09:18.965Z,25.40
2019-02-21T08:11:50.278Z,30.07
2019-02-21T08:14:21.508Z,29.80
2019-02-21T08:16:56.084Z,32.47
2019-02-21T08:19:26.756Z,30.23
2019-02-21T08:22:00.015Z,33.30
2019-02-21T08:24:30.998Z,28.00
2019-02-21T08:27:02.284Z,24.37
2019-02-21T08:29:34.269Z,25.97
2019-02-21T08:32:05.665Z,27.87
2019-02-21T08:34:43.584Z,28.93
2019-02-21T08:37:15.087Z,25.90
2019-02-21T08:39:46.348Z,26.00
2019-02-21T08:42:17.528Z,28.63
2019-02-21T08:44:48.812Z,29.47
2019-02-21T08:47:20.064Z,28.90
2019-02-21T08:49:51.210Z,20.47
2019-02-21T08:52:22.618Z,32.73
2019-02-21T08:55:00.161Z,23.63
2019-02-21T08:57:26.647Z,25.70
2019-02-21T08:59:57.867Z,27.40
2019-02-21T09:02:29.046Z,31.33
2019-02-21T09:05:00.258Z,27.70
2019-02-21T09:07:31.464Z,28.13
2019-02-21T09:10:02.739Z,27.27
2019-02-21T09:12:34.389Z,29.47
2019-02-21T09:15:06.160Z,35.97
2019-02-21T09:17:38.509Z,29.80
2019-02-21T09:20:10.582Z,30.73
2019-02-21T09:22:42.046Z,30.70
2019-02-21T09:25:13.808Z,27.90
2019-02-21T09:27:45.049Z,26.73
2019-02-21T09:30:17.697Z,29.70
2019-02-21T09:32:48.924Z,28.70
2019-02-21T09:35:20.216Z,30.03
2019-02-21T09:37:51.641Z,32.90
2019-02-21T09:40:22.909Z,31.77
2019-02-21T09:42:54.182Z,33.10
2019-02-21T09:45:25.567Z,33.10
2019-02-21T09:48:07.962Z,29.17
2019-02-21T09:50:39.146Z,33.67
2019-02-21T09:53:10.378Z,34.03
2019-02-21T09:55:41.671Z,34.13
2019-02-21T09:58:13.304Z,30.13
2019-02-21T10:00:44.585Z,36.20
2019-02-21T10:03:15.848Z,36.77
2019-02-21T10:05:49.624Z,25.90
2019-02-21T10:08:21.992Z,29.13
2019-02-21T10:10:53.423Z,32.00
2019-02-21T10:13:24.646Z,33.27
2019-02-21T10:15:55.875Z,31.43
2019-02-21T10:18:28.257Z,34.50
2019-02-21T10:20:59.539Z,37.37
2019-02-21T10:23:30.679Z,37.83
2019-02-21T10:26:01.860Z,32.30
2019-02-21T10:28:38.256Z,34.17
2019-02-21T10:31:09.478Z,33.87
2019-02-21T10:33:47.127Z,38.77
2019-02-21T10:36:13.642Z,33.30
2019-02-21T10:38:47.878Z,33.93
2019-02-21T10:41:19.085Z,39.07
2019-02-21T10:43:50.310Z,34.67
2019-02-21T10:46:21.582Z,33.30
2019-02-21T10:48:52.818Z,33.57
2019-02-21T10:51:24.020Z,37.07
2019-02-21T10:53:55.233Z,40.93
2019-02-21T10:56:26.594Z,35.67
2019-02-21T10:58:57.941Z,36.43
2019-02-21T11:01:30.943Z,32.27
2019-02-21T11:04:02.190Z,38.57
2019-02-21T11:06:33.370Z,32.37
2019-02-21T11:09:07.155Z,30.90
2019-02-21T11:11:38.320Z,33.80
2019-02-21T11:14:09.721Z,32.63
2019-02-21T11:16:40.903Z,30.40
2019-02-21T11:19:12.242Z,35.77
2019-02-21T11:21:43.389Z,32.00
2019-02-21T11:24:14.732Z,27.40
2019-02-21T11:26:45.896Z,32.27
2019-02-21T11:29:17.095Z,28.70
2019-02-21T11:31:48.309Z,33.00
2019-02-21T11:34:19.481Z,28.67
2019-02-21T11:36:50.629Z,29.37
2019-02-21T11:39:21.837Z,54.03
2019-02-21T11:41:52.979Z,38.43
2019-02-21T11:44:24.070Z,37.73
2019-02-21T11:46:55.189Z,43.57
2019-02-21T11:49:26.283Z,46.03
2019-02-21T11:51:57.437Z,42.50
2019-02-21T11:54:28.631Z,41.80
2019-02-21T11:56:59.748Z,41.27
2019-02-21T11:59:30.805Z,43.17
2019-02-21T12:02:02.110Z,37.70
2019-02-21T12:04:33.248Z,38.63
2019-02-21T12:07:04.374Z,39.93
2019-02-21T12:09:35.542Z,39.50
2019-02-21T12:12:06.701Z,39.40
2019-02-21T12:14:37.890Z,41.43
2019-02-21T12:17:09.034Z,43.13
2019-02-21T12:19:40.194Z,46.43
2019-02-21T12:22:11.278Z,36.47
2019-02-21T12:24:42.369Z,39.13
2019-02-21T12:27:13.571Z,38.67
2019-02-21T12:29:44.683Z,36.03
2019-02-21T12:32:16.255Z,36.43
2019-02-21T12:34:48.861Z,43.80
2019-02-21T12:37:20.039Z,47.40
2019-02-21T12:39:51.236Z,44.80
2019-02-21T12:42:22.390Z,43.67
2019-02-21T12:44:53.537Z,45.67
2019-02-21T12:47:24.648Z,45.87
2019-02-21T12:49:55.881Z,41.43
2019-02-21T12:52:27.034Z,47.87
2019-02-21T12:54:58.501Z,50.77
2019-02-21T12:57:29.901Z,48.20
2019-02-21T13:00:01.096Z,46.93
2019-02-21T13:02:32.993Z,53.93
2019-02-21T13:05:06.079Z,46.33
2019-02-21T13:07:37.289Z,44.33
2019-02-21T13:10:11.140Z,50.33
2019-02-21T13:12:42.569Z,44.13
2019-02-21T13:15:14.216Z,51.53
2019-02-21T13:17:45.789Z,64.73
2019-02-21T13:20:17.285Z,58.30
2019-02-21T13:22:48.614Z,70.87
2019-02-21T13:25:20.002Z,48.47
2019-02-21T13:27:51.339Z,47.70
2019-02-21T13:30:22.618Z,43.37
2019-02-21T13:32:54.286Z,44.37
2019-02-21T13:35:25.628Z,44.47
2019-02-21T13:37:57.098Z,39.30
2019-02-21T13:40:28.190Z,39.73
2019-02-21T13:42:59.309Z,42.17
2019-02-21T13:45:31.674Z,38.83
2019-02-21T13:48:02.851Z,35.40
2019-02-21T13:50:34.068Z,33.87
2019-02-21T13:53:05.277Z,29.77
2019-02-21T13:55:36.492Z,31.50
2019-02-21T13:58:07.682Z,39.93
2019-02-21T14:00:38.905Z,37.57
2019-02-21T14:03:10.127Z,36.43
2019-02-21T14:05:41.311Z,29.70
2019-02-21T14:08:12.672Z,33.43
2019-02-21T14:10:43.895Z,30.00
2019-02-21T14:13:15.101Z,29.47
2019-02-21T14:15:46.378Z,32.53
2019-02-21T14:18:17.638Z,34.23
2019-02-21T14:20:48.846Z,34.80
2019-02-21T14:23:20.121Z,36.33
2019-02-21T14:25:51.469Z,39.33
2019-02-21T14:28:22.861Z,46.13
2019-02-21T14:30:54.213Z,49.83
2019-02-21T14:33:25.846Z,47.00
2019-02-21T14:35:57.743Z,46.53
2019-02-21T14:38:29.429Z,46.40
2019-02-21T14:41:00.628Z,40.70
2019-02-21T14:43:31.815Z,42.27
2019-02-21T14:46:03.070Z,41.60
2019-02-21T14:48:34.259Z,48.77
2019-02-21T14:51:05.435Z,63.70
2019-02-21T14:53:36.631Z,46.67
2019-02-21T14:56:07.753Z,60.70
2019-02-21T14:58:38.882Z,51.23
2019-02-21T15:01:10.255Z,51.73
2019-02-21T15:03:41.500Z,52.80
2019-02-21T15:06:12.859Z,51.17
2019-02-21T15:08:44.130Z,55.07
2019-02-21T15:11:15.497Z,55.03
2019-02-21T15:13:46.867Z,51.90
2019-02-21T15:16:18.102Z,55.00
2019-02-21T15:18:49.492Z,58.30
2019-02-21T15:21:20.727Z,60.13
2019-02-21T15:23:51.967Z,49.20
2019-02-21T15:26:23.221Z,54.83
2019-02-21T15:28:54.469Z,48.50
2019-02-21T15:31:25.704Z,50.07
2019-02-21T15:33:57.075Z,50.80
2019-02-21T15:36:37.907Z,52.17
2019-02-21T15:39:01.552Z,55.03
2019-02-21T15:41:34.480Z,55.97
2019-02-21T15:44:05.894Z,54.17
2019-02-21T15:46:37.707Z,51.27
2019-02-21T15:49:09.106Z,52.37
2019-02-21T15:51:40.659Z,53.30
2019-02-21T15:54:12.588Z,49.03
2019-02-21T15:56:45.117Z,48.30
2019-02-21T15:59:16.563Z,50.50
2019-02-21T16:01:48.066Z,51.67
2019-02-21T16:04:19.564Z,53.80
2019-02-21T16:06:51.798Z,46.73
2019-02-21T16:09:25.385Z,43.00
2019-02-21T16:11:57.125Z,45.80
2019-02-21T16:14:28.313Z,39.77
2019-02-21T16:16:59.631Z,47.37
2019-02-21T16:19:30.882Z,48.90
2019-02-21T16:22:02.215Z,43.40
2019-02-21T16:24:35.083Z,44.20
2019-02-21T16:27:06.413Z,40.93
2019-02-21T16:29:37.852Z,37.87
2019-02-21T16:32:09.129Z,39.57
2019-02-21T16:34:40.607Z,36.93
2019-02-21T16:37:13.601Z,37.60
2019-02-21T16:39:45.147Z,43.33
2019-02-21T16:42:16.347Z,37.63
2019-02-21T16:44:47.597Z,41.53
2019-02-21T16:47:20.091Z,39.33
2019-02-21T16:49:51.407Z,38.97
2019-02-21T16:52:22.789Z,36.40
2019-02-21T16:54:54.035Z,36.63
2019-02-21T16:57:25.263Z,29.07
2019-02-21T16:59:56.486Z,29.77
2019-02-21T17:02:27.757Z,25.63
2019-02-21T17:04:59.093Z,27.63
2019-02-21T17:07:30.385Z,23.20
2019-02-21T17:10:03.901Z,24.13
2019-02-21T17:12:37.123Z,22.67
2019-02-21T17:15:09.851Z,23.30
2019-02-21T17:17:41.139Z,30.67
2019-02-21T17:20:14.417Z,23.50
2019-02-21T17:22:45.953Z,23.50
2019-02-21T17:25:17.506Z,21.07
2019-02-21T17:27:48.833Z,21.10
2019-02-21T17:30:20.592Z,21.50
2019-02-21T17:32:51.850Z,21.30
2019-02-21T17:35:23.175Z,19.73
2019-02-21T17:37:54.490Z,22.43
2019-02-21T17:40:26.938Z,19.07
2019-02-21T17:42:58.110Z,22.97
2019-02-21T17:45:29.558Z,21.37
2019-02-21T17:48:00.779Z,25.57
2019-02-21T17:50:32.240Z,25.97
2019-02-21T17:53:03.537Z,23.00
2019-02-21T17:55:36.622Z,28.60
2019-02-21T17:58:08.030Z,28.27
2019-02-21T18:00:39.753Z,28.17
2019-02-21T18:03:11.873Z,24.53
2019-02-21T18:05:43.259Z,25.37
2019-02-21T18:08:14.592Z,29.17
2019-02-21T18:10:46.124Z,29.83
2019-02-21T18:13:17.420Z,25.93
2019-02-21T18:15:48.803Z,31.97
2019-02-21T18:18:20.115Z,32.77
2019-02-21T18:20:51.558Z,29.23
2019-02-21T18:23:22.916Z,30.10
2019-02-21T18:25:59.892Z,31.07
2019-02-21T18:28:31.529Z,31.97
2019-02-21T18:31:20.655Z,28.97
2019-02-21T18:33:52.921Z,31.80
2019-02-21T18:36:24.143Z,31.17
2019-02-21T18:38:55.508Z,35.33
2019-02-21T18:41:26.851Z,32.80
2019-02-21T18:43:58.164Z,32.30
2019-02-21T18:46:29.583Z,33.70
2019-02-21T18:49:00.997Z,36.23
2019-02-21T18:51:32.400Z,29.57
2019-02-21T18:54:03.709Z,28.43
2019-02-21T18:56:35.095Z,32.33
2019-02-21T18:59:06.349Z,34.47
2019-02-21T19:01:37.658Z,31.53
2019-02-21T19:04:08.910Z,38.13
2019-02-21T19:06:40.183Z,34.13
2019-02-21T19:09:11.882Z,39.07
2019-02-21T19:11:43.305Z,34.90
2019-02-21T19:14:14.792Z,33.00
2019-02-21T19:16:46.148Z,37.23
2019-02-21T19:19:17.390Z,37.77
2019-02-21T19:21:48.879Z,34.63
2019-02-21T19:24:20.158Z,32.40
2019-02-21T19:26:51.538Z,34.33
2019-02-21T19:29:22.807Z,34.47
2019-02-21T19:32:02.033Z,33.00
2019-02-21T19:34:33.350Z,38.03
2019-02-21T19:37:04.807Z,40.87
2019-02-21T19:39:36.289Z,40.70
2019-02-21T19:42:11.438Z,37.90
2019-02-21T19:44:42.804Z,39.13
2019-02-21T19:47:14.067Z,41.47
2019-02-21T19:49:45.316Z,42.17
2019-02-21T19:52:16.502Z,41.37
2019-02-21T19:54:50.359Z,39.27
2019-02-21T19:57:21.591Z,37.87
2019-02-21T19:59:52.831Z,43.37
2019-02-21T20:02:24.177Z,40.30
2019-02-21T20:04:55.396Z,37.90
2019-02-21T20:07:26.725Z,41.30
2019-02-21T20:09:58.090Z,39.10
2019-02-21T20:12:29.331Z,37.23
2019-02-21T20:15:00.581Z,39.70
2019-02-21T20:17:34.384Z,38.37
2019-02-21T20:20:06.079Z,38.97
2019-02-21T20:22:37.319Z,41.53
2019-02-21T20:25:20.093Z,37.97
2019-02-21T20:28:00.720Z,45.90
2019-02-21T20:30:42.266Z,41.73
2019-02-21T20:33:13.786Z,39.63
2019-02-21T20:35:45.052Z,37.50
2019-02-21T20:38:16.263Z,41.17
2019-02-21T20:40:47.494Z,42.37
2019-02-21T20:43:18.687Z,39.33
2019-02-21T20:45:53.405Z,39.97
2019-02-21T20:48:22.859Z,40.87
2019-02-21T20:50:57.184Z,46.13
2019-02-21T20:53:27.509Z,46.97
2019-02-21T20:55:59.042Z,52.50
2019-02-21T20:58:30.319Z,48.23
2019-02-21T21:01:03.325Z,50.50
2019-02-21T21:03:35.286Z,57.30
2019-02-21T21:06:06.834Z,53.07
2019-02-21T21:08:43.187Z,52.30
2019-02-21T21:11:11.118Z,56.47
2019-02-21T21:13:44.173Z,59.80
2019-02-21T21:16:15.296Z,59.50
2019-02-21T21:18:46.546Z,59.27
2019-02-21T21:21:20.740Z,59.27
2019-02-21T21:23:51.993Z,64.90
2019-02-21T21:26:23.766Z,63.47
2019-02-21T21:28:55.031Z,66.37
2019-02-21T21:31:26.334Z,64.23
2019-02-21T21:33:57.603Z,61.60
2019-02-21T21:36:29.840Z,60.20
2019-02-21T21:39:01.374Z,65.60
2019-02-21T21:41:34.143Z,66.80
2019-02-21T21:44:05.536Z,59.70
2019-02-21T21:46:36.789Z,67.60
2019-02-21T21:49:08.007Z,64.87
2019-02-21T21:51:39.264Z,67.63
2019-02-21T21:54:10.576Z,65.33
2019-02-21T21:56:41.833Z,64.70
2019-02-21T21:59:14.445Z,70.77
2019-02-21T22:01:47.596Z,68.70
2019-02-21T22:04:20.963Z,73.47
2019-02-21T22:06:51.599Z,69.93
2019-02-21T22:09:22.934Z,65.43
2019-02-21T22:11:54.199Z,73.60
2019-02-21T22:14:25.479Z,69.63
2019-02-21T22:16:57.072Z,73.27
2019-02-21T22:19:28.628Z,72.63
2019-02-21T22:22:00.238Z,78.70
2019-02-21T22:24:31.784Z,75.90
2019-02-21T22:27:03.723Z,75.60
2019-02-21T22:29:35.579Z,78.87
2019-02-21T22:32:07.121Z,67.90
2019-02-21T22:34:38.647Z,68.70
2019-02-21T22:37:10.434Z,73.60
2019-02-21T22:39:42.281Z,66.90
2019-02-21T22:42:13.904Z,64.03
2019-02-21T22:44:45.132Z,62.63
2019-02-21T22:47:16.624Z,62.20
2019-02-21T22:49:48.416Z,63.10
2019-02-21T22:52:19.858Z,67.20
2019-02-21T22:54:51.178Z,61.17
2019-02-21T22:57:22.511Z,57.03
2019-02-21T22:59:53.975Z,63.33
2019-02-21T23:02:25.970Z,61.17
2019-02-21T23:05:35.628Z,58.37
2019-02-21T23:08:46.190Z,60.97
2019-02-21T23:11:17.554Z,63.67
2019-02-21T23:13:49.525Z,54.93
2019-02-21T23:16:21.060Z,57.70
2019-02-21T23:18:52.367Z,60.03
2019-02-21T23:21:23.856Z,51.93
2019-02-21T23:23:55.293Z,53.77
2019-02-21T23:26:28.630Z,50.33
2019-02-21T23:29:00.662Z,50.53
2019-02-21T23:31:32.046Z,49.90
2019-02-21T23:34:03.372Z,49.73
2019-02-21T23:36:34.612Z,51.67
2019-02-21T23:39:06.769Z,50.27
2019-02-21T23:54:09.597Z,48.87
2019-02-21T23:56:40.812Z,46.90
2019-02-21T23:59:11.985Z,44.40
